This is the latest recevied weather packets stored in our database for station/object VK3PBR-10. If no packets are shown the sender has not sent any weather packets the latest 10 day(s).
| Time | Temp. | Humidity | Pressure | Rain* | Wind** | Luminosity | Snow |
|---|---|---|---|---|---|---|---|
| 1787989635 | 16.11° C | 45% | 1035.6 hPa | - | - | - | - |
| 1787988735 | 17.22° C | 44% | 1035.5 hPa | - | - | - | - |
| 1787987835 | 18.89° C | 43% | 1035.5 hPa | - | - | - | - |
| 1787986935 | 19.44° C | 42% | 1035.5 hPa | - | - | - | - |
| 1787986035 | 20.56° C | 40% | 1035.5 hPa | - | - | - | - |
| 1787985134 | 20.56° C | 40% | 1035.5 hPa | - | - | - | - |
| 1787984234 | 15° C | 38% | 1025.6 hPa | - | - | - | - |
| 1787983334 | 22.78° C | 36% | 1035.3 hPa | - | - | - | - |
| 1787982434 | 23.33° C | 36% | 1035.4 hPa | - | - | - | - |
| 1787981534 | 23.33° C | 35% | 1035.4 hPa | - | - | - | - |
| 1787980634 | 23.89° C | 34% | 1035.6 hPa | - | - | - | - |
| 1787979732 | 20.56° C | 38% | 1035.7 hPa | - | - | - | - |
| 1787978832 | 21.11° C | 41% | 1035.7 hPa | - | - | - | - |
| 1787977932 | 20° C | 41% | 1035.9 hPa | - | - | - | - |
| 1787977032 | 21.11° C | 39% | 1035.9 hPa | - | - | - | - |
| 1787976132 | 20° C | 42% | 1036.1 hPa | - | - | - | - |
| 1787975231 | 20° C | 42% | 1036.2 hPa | - | - | - | - |
| 1787974331 | 20° C | 42% | 1036.4 hPa | - | - | - | - |
| 1787973431 | 19.44° C | 42% | 1036.4 hPa | - | - | - | - |
| 1787972531 | 20.56° C | 40% | 1036.4 hPa | - | - | - | - |
| 1787971630 | 21.11° C | 40% | 1036.6 hPa | - | - | - | - |
| 1787970730 | 22.22° C | 38% | 1036.5 hPa | - | - | - | - |
| 1787969830 | 23.33° C | 36% | 1036.6 hPa | - | - | - | - |
| 1787968930 | 22.78° C | 37% | 1036.6 hPa | - | - | - | - |
| 1787968030 | 23.89° C | 38% | 1036.6 hPa | - | - | - | - |
* Rain since midnight (hover to see other rain measurements)
** Current wind speed in m/s (hover to see current wind gust speed)